sensor_id;sensor_type;location;lat;lon;timestamp;P1;durP1;ratioP1;P2;durP2;ratioP2
11691;SDS011;33659;42.672;23.354;2022-09-09T00:01:37;8.80;;;6.15;;
11691;SDS011;33659;42.672;23.354;2022-09-09T00:04:15;11.98;;;6.72;;
11691;SDS011;33659;42.672;23.354;2022-09-09T00:06:49;8.40;;;6.65;;
11691;SDS011;33659;42.672;23.354;2022-09-09T00:09:27;7.55;;;6.53;;
11691;SDS011;33659;42.672;23.354;2022-09-09T00:11:56;7.65;;;6.47;;
11691;SDS011;33659;42.672;23.354;2022-09-09T00:14:32;9.77;;;6.60;;
11691;SDS011;33659;42.672;23.354;2022-09-09T00:17:04;7.82;;;5.97;;
11691;SDS011;33659;42.672;23.354;2022-09-09T00:19:37;9.05;;;6.20;;
11691;SDS011;33659;42.672;23.354;2022-09-09T00:22:12;9.68;;;6.85;;
11691;SDS011;33659;42.672;23.354;2022-09-09T00:24:45;6.70;;;5.85;;
11691;SDS011;33659;42.672;23.354;2022-09-09T00:27:16;8.88;;;6.65;;
11691;SDS011;33659;42.672;23.354;2022-09-09T00:29:51;8.88;;;6.47;;
11691;SDS011;33659;42.672;23.354;2022-09-09T00:32:20;10.40;;;6.20;;
11691;SDS011;33659;42.672;23.354;2022-09-09T00:34:48;8.15;;;5.95;;
11691;SDS011;33659;42.672;23.354;2022-09-09T00:37:18;7.15;;;6.38;;
11691;SDS011;33659;42.672;23.354;2022-09-09T00:39:48;9.98;;;6.20;;
11691;SDS011;33659;42.672;23.354;2022-09-09T00:42:18;10.30;;;6.43;;
11691;SDS011;33659;42.672;23.354;2022-09-09T00:44:51;9.13;;;6.63;;
11691;SDS011;33659;42.672;23.354;2022-09-09T00:47:32;15.23;;;6.75;;
11691;SDS011;33659;42.672;23.354;2022-09-09T00:50:10;7.13;;;6.40;;
11691;SDS011;33659;42.672;23.354;2022-09-09T00:52:44;9.73;;;6.20;;
11691;SDS011;33659;42.672;23.354;2022-09-09T00:55:21;7.40;;;5.90;;
11691;SDS011;33659;42.672;23.354;2022-09-09T00:57:54;7.43;;;6.10;;
11691;SDS011;33659;42.672;23.354;2022-09-09T01:00:22;10.35;;;6.50;;
11691;SDS011;33659;42.672;23.354;2022-09-09T01:02:52;7.88;;;6.20;;
11691;SDS011;33659;42.672;23.354;2022-09-09T01:05:27;7.55;;;6.68;;
11691;SDS011;33659;42.672;23.354;2022-09-09T01:08:02;8.40;;;5.80;;
11691;SDS011;33659;42.672;23.354;2022-09-09T01:10:39;9.20;;;5.35;;
11691;SDS011;33659;42.672;23.354;2022-09-09T01:13:15;10.45;;;6.57;;
11691;SDS011;33659;42.672;23.354;2022-09-09T01:15:48;10.27;;;5.55;;
11691;SDS011;33659;42.672;23.354;2022-09-09T01:18:19;5.78;;;4.93;;
11691;SDS011;33659;42.672;23.354;2022-09-09T01:20:53;6.38;;;5.25;;
11691;SDS011;33659;42.672;23.354;2022-09-09T01:23:32;7.03;;;5.53;;
11691;SDS011;33659;42.672;23.354;2022-09-09T01:28:53;9.07;;;6.03;;
11691;SDS011;33659;42.672;23.354;2022-09-09T01:31:21;8.85;;;6.45;;
11691;SDS011;33659;42.672;23.354;2022-09-09T01:33:52;6.82;;;6.13;;
11691;SDS011;33659;42.672;23.354;2022-09-09T01:36:21;8.55;;;6.07;;
11691;SDS011;33659;42.672;23.354;2022-09-09T01:38:56;7.35;;;5.53;;
11691;SDS011;33659;42.672;23.354;2022-09-09T01:41:23;6.32;;;5.65;;
11691;SDS011;33659;42.672;23.354;2022-09-09T01:43:52;9.60;;;5.78;;
11691;SDS011;33659;42.672;23.354;2022-09-09T01:46:19;7.32;;;5.53;;
11691;SDS011;33659;42.672;23.354;2022-09-09T01:48:48;9.07;;;5.97;;
11691;SDS011;33659;42.672;23.354;2022-09-09T01:51:17;7.90;;;5.65;;
11691;SDS011;33659;42.672;23.354;2022-09-09T01:53:44;7.10;;;5.70;;
11691;SDS011;33659;42.672;23.354;2022-09-09T01:56:15;9.23;;;5.78;;
11691;SDS011;33659;42.672;23.354;2022-09-09T01:59:03;5.80;;;5.20;;
11691;SDS011;33659;42.672;23.354;2022-09-09T02:01:44;10.30;;;6.07;;
11691;SDS011;33659;42.672;23.354;2022-09-09T02:04:27;5.93;;;5.32;;
11691;SDS011;33659;42.672;23.354;2022-09-09T02:07:02;7.32;;;5.68;;
11691;SDS011;33659;42.672;23.354;2022-09-09T02:09:32;7.00;;;5.72;;
11691;SDS011;33659;42.672;23.354;2022-09-09T02:12:00;10.27;;;6.00;;
11691;SDS011;33659;42.672;23.354;2022-09-09T02:14:37;6.30;;;5.57;;
11691;SDS011;33659;42.672;23.354;2022-09-09T02:17:08;9.93;;;5.82;;
11691;SDS011;33659;42.672;23.354;2022-09-09T02:19:37;10.07;;;5.78;;
11691;SDS011;33659;42.672;23.354;2022-09-09T02:22:08;5.55;;;5.05;;
11691;SDS011;33659;42.672;23.354;2022-09-09T02:24:36;8.57;;;5.65;;
11691;SDS011;33659;42.672;23.354;2022-09-09T02:27:05;6.68;;;5.25;;
11691;SDS011;33659;42.672;23.354;2022-09-09T02:29:36;6.60;;;5.38;;
11691;SDS011;33659;42.672;23.354;2022-09-09T02:32:08;7.60;;;5.60;;
11691;SDS011;33659;42.672;23.354;2022-09-09T02:34:39;6.50;;;5.82;;
11691;SDS011;33659;42.672;23.354;2022-09-09T02:37:10;8.02;;;5.53;;
11691;SDS011;33659;42.672;23.354;2022-09-09T02:39:38;7.80;;;6.40;;
11691;SDS011;33659;42.672;23.354;2022-09-09T02:42:05;6.63;;;5.55;;
11691;SDS011;33659;42.672;23.354;2022-09-09T02:44:33;6.60;;;5.47;;
11691;SDS011;33659;42.672;23.354;2022-09-09T02:47:05;5.75;;;5.20;;
11691;SDS011;33659;42.672;23.354;2022-09-09T02:49:40;6.85;;;5.50;;
11691;SDS011;33659;42.672;23.354;2022-09-09T02:52:18;7.45;;;5.93;;
11691;SDS011;33659;42.672;23.354;2022-09-09T02:54:49;6.30;;;5.70;;
11691;SDS011;33659;42.672;23.354;2022-09-09T02:57:23;9.05;;;5.70;;
11691;SDS011;33659;42.672;23.354;2022-09-09T02:59:52;7.10;;;5.80;;
11691;SDS011;33659;42.672;23.354;2022-09-09T03:02:23;6.72;;;5.55;;
11691;SDS011;33659;42.672;23.354;2022-09-09T03:04:50;10.80;;;5.82;;
11691;SDS011;33659;42.672;23.354;2022-09-09T03:07:17;7.68;;;6.43;;
11691;SDS011;33659;42.672;23.354;2022-09-09T03:09:44;6.97;;;6.03;;
11691;SDS011;33659;42.672;23.354;2022-09-09T03:12:11;7.65;;;5.88;;
11691;SDS011;33659;42.672;23.354;2022-09-09T03:14:38;7.80;;;6.38;;
11691;SDS011;33659;42.672;23.354;2022-09-09T03:17:05;7.63;;;5.93;;
11691;SDS011;33659;42.672;23.354;2022-09-09T03:19:34;6.50;;;5.90;;
11691;SDS011;33659;42.672;23.354;2022-09-09T03:22:02;9.15;;;6.63;;
11691;SDS011;33659;42.672;23.354;2022-09-09T03:24:30;9.35;;;6.80;;
11691;SDS011;33659;42.672;23.354;2022-09-09T03:26:57;8.70;;;6.85;;
11691;SDS011;33659;42.672;23.354;2022-09-09T03:29:23;9.95;;;7.00;;
11691;SDS011;33659;42.672;23.354;2022-09-09T03:31:50;9.73;;;6.82;;
11691;SDS011;33659;42.672;23.354;2022-09-09T03:34:17;11.80;;;6.97;;
11691;SDS011;33659;42.672;23.354;2022-09-09T03:36:45;7.03;;;6.32;;
11691;SDS011;33659;42.672;23.354;2022-09-09T03:39:13;11.82;;;6.63;;
11691;SDS011;33659;42.672;23.354;2022-09-09T03:41:40;11.82;;;6.47;;
11691;SDS011;33659;42.672;23.354;2022-09-09T03:44:07;9.27;;;6.50;;
11691;SDS011;33659;42.672;23.354;2022-09-09T03:46:33;9.43;;;5.82;;
11691;SDS011;33659;42.672;23.354;2022-09-09T03:49:00;7.30;;;6.32;;
11691;SDS011;33659;42.672;23.354;2022-09-09T03:51:27;9.63;;;6.63;;
11691;SDS011;33659;42.672;23.354;2022-09-09T03:53:55;7.70;;;5.95;;
11691;SDS011;33659;42.672;23.354;2022-09-09T03:56:23;8.25;;;5.78;;
11691;SDS011;33659;42.672;23.354;2022-09-09T03:58:50;7.40;;;5.65;;
11691;SDS011;33659;42.672;23.354;2022-09-09T04:01:16;9.00;;;6.28;;
11691;SDS011;33659;42.672;23.354;2022-09-09T04:03:43;8.07;;;5.97;;
11691;SDS011;33659;42.672;23.354;2022-09-09T04:06:11;7.22;;;6.53;;
11691;SDS011;33659;42.672;23.354;2022-09-09T04:08:40;9.18;;;6.65;;
11691;SDS011;33659;42.672;23.354;2022-09-09T04:11:08;6.57;;;5.97;;
11691;SDS011;33659;42.672;23.354;2022-09-09T04:13:36;8.52;;;6.88;;
11691;SDS011;33659;42.672;23.354;2022-09-09T04:16:04;7.68;;;6.88;;
11691;SDS011;33659;42.672;23.354;2022-09-09T04:18:31;8.73;;;6.68;;
11691;SDS011;33659;42.672;23.354;2022-09-09T04:20:59;9.70;;;6.97;;
11691;SDS011;33659;42.672;23.354;2022-09-09T04:23:26;9.93;;;6.03;;
11691;SDS011;33659;42.672;23.354;2022-09-09T04:25:55;10.18;;;6.57;;
11691;SDS011;33659;42.672;23.354;2022-09-09T04:28:25;7.78;;;6.20;;
11691;SDS011;33659;42.672;23.354;2022-09-09T04:30:54;9.75;;;6.38;;
11691;SDS011;33659;42.672;23.354;2022-09-09T04:33:23;8.32;;;6.03;;
11691;SDS011;33659;42.672;23.354;2022-09-09T04:35:51;9.52;;;6.28;;
11691;SDS011;33659;42.672;23.354;2022-09-09T04:38:19;6.30;;;5.68;;
11691;SDS011;33659;42.672;23.354;2022-09-09T04:40:47;6.03;;;5.43;;
11691;SDS011;33659;42.672;23.354;2022-09-09T04:43:16;7.40;;;5.88;;
11691;SDS011;33659;42.672;23.354;2022-09-09T04:45:46;7.40;;;5.30;;
11691;SDS011;33659;42.672;23.354;2022-09-09T04:48:14;7.07;;;6.13;;
11691;SDS011;33659;42.672;23.354;2022-09-09T04:50:41;9.75;;;6.60;;
11691;SDS011;33659;42.672;23.354;2022-09-09T04:53:08;10.57;;;7.55;;
11691;SDS011;33659;42.672;23.354;2022-09-09T04:55:35;14.07;;;7.47;;
11691;SDS011;33659;42.672;23.354;2022-09-09T04:58:03;13.70;;;6.93;;
11691;SDS011;33659;42.672;23.354;2022-09-09T05:00:30;11.48;;;7.18;;
11691;SDS011;33659;42.672;23.354;2022-09-09T05:02:59;9.27;;;7.22;;
11691;SDS011;33659;42.672;23.354;2022-09-09T05:05:30;10.07;;;7.38;;
11691;SDS011;33659;42.672;23.354;2022-09-09T05:08:00;13.10;;;7.43;;
11691;SDS011;33659;42.672;23.354;2022-09-09T05:10:28;10.07;;;7.10;;
11691;SDS011;33659;42.672;23.354;2022-09-09T05:12:54;15.05;;;7.68;;
11691;SDS011;33659;42.672;23.354;2022-09-09T05:15:21;9.63;;;7.68;;
11691;SDS011;33659;42.672;23.354;2022-09-09T05:17:48;7.10;;;6.40;;
11691;SDS011;33659;42.672;23.354;2022-09-09T05:20:18;11.25;;;7.82;;
11691;SDS011;33659;42.672;23.354;2022-09-09T05:22:46;15.52;;;7.88;;
11691;SDS011;33659;42.672;23.354;2022-09-09T05:25:13;12.95;;;7.18;;
11691;SDS011;33659;42.672;23.354;2022-09-09T05:27:39;12.15;;;7.43;;
11691;SDS011;33659;42.672;23.354;2022-09-09T05:30:07;8.68;;;7.22;;
11691;SDS011;33659;42.672;23.354;2022-09-09T05:32:34;12.65;;;6.75;;
11691;SDS011;33659;42.672;23.354;2022-09-09T05:35:01;9.23;;;6.60;;
11691;SDS011;33659;42.672;23.354;2022-09-09T05:37:29;7.85;;;6.70;;
11691;SDS011;33659;42.672;23.354;2022-09-09T05:39:57;12.13;;;6.68;;
11691;SDS011;33659;42.672;23.354;2022-09-09T05:42:24;10.40;;;6.70;;
11691;SDS011;33659;42.672;23.354;2022-09-09T05:44:51;11.68;;;7.22;;
11691;SDS011;33659;42.672;23.354;2022-09-09T05:47:19;13.07;;;6.50;;
11691;SDS011;33659;42.672;23.354;2022-09-09T05:49:46;7.55;;;5.47;;
11691;SDS011;33659;42.672;23.354;2022-09-09T05:52:12;15.90;;;6.22;;
11691;SDS011;33659;42.672;23.354;2022-09-09T05:54:40;10.95;;;6.30;;
11691;SDS011;33659;42.672;23.354;2022-09-09T05:57:08;10.55;;;5.38;;
11691;SDS011;33659;42.672;23.354;2022-09-09T05:59:35;6.43;;;5.20;;
11691;SDS011;33659;42.672;23.354;2022-09-09T06:02:01;8.82;;;5.78;;
11691;SDS011;33659;42.672;23.354;2022-09-09T06:04:28;7.20;;;5.07;;
11691;SDS011;33659;42.672;23.354;2022-09-09T06:06:55;10.38;;;5.72;;
11691;SDS011;33659;42.672;23.354;2022-09-09T06:09:22;9.80;;;6.38;;
11691;SDS011;33659;42.672;23.354;2022-09-09T06:11:50;11.40;;;6.75;;
11691;SDS011;33659;42.672;23.354;2022-09-09T06:14:16;9.90;;;5.65;;
11691;SDS011;33659;42.672;23.354;2022-09-09T06:16:43;8.40;;;6.15;;
11691;SDS011;33659;42.672;23.354;2022-09-09T06:19:11;9.75;;;6.05;;
11691;SDS011;33659;42.672;23.354;2022-09-09T06:21:39;8.25;;;6.10;;
11691;SDS011;33659;42.672;23.354;2022-09-09T06:24:07;9.93;;;6.18;;
11691;SDS011;33659;42.672;23.354;2022-09-09T06:26:34;9.00;;;5.60;;
11691;SDS011;33659;42.672;23.354;2022-09-09T06:29:03;9.05;;;5.55;;
11691;SDS011;33659;42.672;23.354;2022-09-09T06:31:31;10.35;;;5.68;;
11691;SDS011;33659;42.672;23.354;2022-09-09T06:34:02;5.80;;;5.10;;
11691;SDS011;33659;42.672;23.354;2022-09-09T06:36:31;12.63;;;6.40;;
11691;SDS011;33659;42.672;23.354;2022-09-09T06:38:59;5.78;;;4.68;;
11691;SDS011;33659;42.672;23.354;2022-09-09T06:41:26;6.35;;;5.75;;
11691;SDS011;33659;42.672;23.354;2022-09-09T06:43:54;7.13;;;5.07;;
11691;SDS011;33659;42.672;23.354;2022-09-09T06:46:23;6.43;;;5.22;;
11691;SDS011;33659;42.672;23.354;2022-09-09T06:48:53;8.27;;;5.38;;
11691;SDS011;33659;42.672;23.354;2022-09-09T06:51:22;7.38;;;4.90;;
11691;SDS011;33659;42.672;23.354;2022-09-09T06:53:51;5.80;;;4.30;;
11691;SDS011;33659;42.672;23.354;2022-09-09T06:56:20;7.70;;;4.60;;
11691;SDS011;33659;42.672;23.354;2022-09-09T06:58:48;7.15;;;3.60;;
11691;SDS011;33659;42.672;23.354;2022-09-09T07:01:17;4.95;;;3.78;;
11691;SDS011;33659;42.672;23.354;2022-09-09T07:03:47;4.90;;;4.40;;
11691;SDS011;33659;42.672;23.354;2022-09-09T07:06:15;4.85;;;3.85;;
11691;SDS011;33659;42.672;23.354;2022-09-09T07:08:47;6.03;;;4.10;;
11691;SDS011;33659;42.672;23.354;2022-09-09T07:11:15;5.05;;;4.20;;
11691;SDS011;33659;42.672;23.354;2022-09-09T07:13:42;7.22;;;4.35;;
11691;SDS011;33659;42.672;23.354;2022-09-09T07:16:10;5.53;;;4.28;;
11691;SDS011;33659;42.672;23.354;2022-09-09T07:18:38;5.90;;;4.97;;
11691;SDS011;33659;42.672;23.354;2022-09-09T07:21:08;9.25;;;5.60;;
11691;SDS011;33659;42.672;23.354;2022-09-09T07:23:37;6.45;;;4.40;;
11691;SDS011;33659;42.672;23.354;2022-09-09T07:26:06;9.77;;;4.72;;
11691;SDS011;33659;42.672;23.354;2022-09-09T07:28:34;6.40;;;4.68;;
11691;SDS011;33659;42.672;23.354;2022-09-09T07:31:01;10.63;;;5.05;;
11691;SDS011;33659;42.672;23.354;2022-09-09T07:33:29;21.05;;;9.55;;
11691;SDS011;33659;42.672;23.354;2022-09-09T07:36:01;17.25;;;8.52;;
11691;SDS011;33659;42.672;23.354;2022-09-09T07:38:31;5.00;;;4.50;;
11691;SDS011;33659;42.672;23.354;2022-09-09T07:41:02;7.03;;;4.30;;
11691;SDS011;33659;42.672;23.354;2022-09-09T07:43:30;4.47;;;3.90;;
11691;SDS011;33659;42.672;23.354;2022-09-09T07:45:57;11.65;;;6.63;;
11691;SDS011;33659;42.672;23.354;2022-09-09T07:48:24;10.02;;;6.65;;
11691;SDS011;33659;42.672;23.354;2022-09-09T07:50:50;4.72;;;3.83;;
11691;SDS011;33659;42.672;23.354;2022-09-09T07:53:17;22.80;;;13.07;;
11691;SDS011;33659;42.672;23.354;2022-09-09T07:55:46;15.07;;;7.97;;
11691;SDS011;33659;42.672;23.354;2022-09-09T07:58:12;5.90;;;4.57;;
11691;SDS011;33659;42.672;23.354;2022-09-09T08:00:39;10.90;;;6.30;;
11691;SDS011;33659;42.672;23.354;2022-09-09T08:03:08;6.43;;;4.80;;
11691;SDS011;33659;42.672;23.354;2022-09-09T08:05:35;4.63;;;3.60;;
11691;SDS011;33659;42.672;23.354;2022-09-09T08:08:04;6.55;;;4.82;;
11691;SDS011;33659;42.672;23.354;2022-09-09T08:10:31;6.60;;;4.30;;
11691;SDS011;33659;42.672;23.354;2022-09-09T08:12:59;6.57;;;4.13;;
11691;SDS011;33659;42.672;23.354;2022-09-09T08:15:25;5.20;;;4.47;;
11691;SDS011;33659;42.672;23.354;2022-09-09T08:17:53;8.63;;;4.75;;
11691;SDS011;33659;42.672;23.354;2022-09-09T08:20:22;7.55;;;4.15;;
11691;SDS011;33659;42.672;23.354;2022-09-09T08:22:48;4.63;;;3.95;;
11691;SDS011;33659;42.672;23.354;2022-09-09T08:25:16;4.47;;;3.65;;
11691;SDS011;33659;42.672;23.354;2022-09-09T08:27:42;8.60;;;5.10;;
11691;SDS011;33659;42.672;23.354;2022-09-09T08:30:11;7.63;;;4.72;;
11691;SDS011;33659;42.672;23.354;2022-09-09T08:32:39;7.18;;;4.70;;
11691;SDS011;33659;42.672;23.354;2022-09-09T08:35:06;5.32;;;4.20;;
11691;SDS011;33659;42.672;23.354;2022-09-09T08:37:33;5.35;;;4.20;;
11691;SDS011;33659;42.672;23.354;2022-09-09T08:40:00;7.05;;;4.22;;
11691;SDS011;33659;42.672;23.354;2022-09-09T08:42:29;7.97;;;4.50;;
11691;SDS011;33659;42.672;23.354;2022-09-09T08:45:19;7.30;;;4.88;;
11691;SDS011;33659;42.672;23.354;2022-09-09T08:47:54;6.60;;;4.28;;
11691;SDS011;33659;42.672;23.354;2022-09-09T08:50:32;10.05;;;4.55;;
11691;SDS011;33659;42.672;23.354;2022-09-09T08:53:04;5.50;;;4.22;;
11691;SDS011;33659;42.672;23.354;2022-09-09T08:55:39;8.07;;;4.72;;
11691;SDS011;33659;42.672;23.354;2022-09-09T08:58:13;5.03;;;4.25;;
11691;SDS011;33659;42.672;23.354;2022-09-09T09:00:50;7.30;;;5.05;;
11691;SDS011;33659;42.672;23.354;2022-09-09T09:03:28;8.27;;;4.70;;
11691;SDS011;33659;42.672;23.354;2022-09-09T09:06:04;11.32;;;4.53;;
11691;SDS011;33659;42.672;23.354;2022-09-09T09:08:42;8.23;;;4.95;;
11691;SDS011;33659;42.672;23.354;2022-09-09T09:11:16;7.35;;;4.57;;
11691;SDS011;33659;42.672;23.354;2022-09-09T09:13:44;6.10;;;3.95;;
11691;SDS011;33659;42.672;23.354;2022-09-09T09:16:19;5.43;;;3.88;;
11691;SDS011;33659;42.672;23.354;2022-09-09T09:18:51;6.10;;;4.70;;
11691;SDS011;33659;42.672;23.354;2022-09-09T09:21:20;10.13;;;4.18;;
11691;SDS011;33659;42.672;23.354;2022-09-09T09:23:54;8.13;;;3.90;;
11691;SDS011;33659;42.672;23.354;2022-09-09T09:26:23;8.10;;;4.68;;
11691;SDS011;33659;42.672;23.354;2022-09-09T09:28:55;4.55;;;4.15;;
11691;SDS011;33659;42.672;23.354;2022-09-09T09:31:24;9.90;;;4.30;;
11691;SDS011;33659;42.672;23.354;2022-09-09T09:33:52;7.25;;;4.10;;
11691;SDS011;33659;42.672;23.354;2022-09-09T09:36:21;5.13;;;4.47;;
11691;SDS011;33659;42.672;23.354;2022-09-09T09:39:00;5.18;;;4.07;;
11691;SDS011;33659;42.672;23.354;2022-09-09T09:41:29;5.32;;;3.88;;
11691;SDS011;33659;42.672;23.354;2022-09-09T09:43:57;5.28;;;4.75;;
11691;SDS011;33659;42.672;23.354;2022-09-09T09:46:27;8.55;;;4.57;;
11691;SDS011;33659;42.672;23.354;2022-09-09T09:48:58;9.18;;;4.50;;
11691;SDS011;33659;42.672;23.354;2022-09-09T09:51:25;8.13;;;4.93;;
11691;SDS011;33659;42.672;23.354;2022-09-09T09:53:53;4.90;;;3.78;;
11691;SDS011;33659;42.672;23.354;2022-09-09T09:56:26;6.80;;;3.80;;
11691;SDS011;33659;42.672;23.354;2022-09-09T09:58:54;6.15;;;4.80;;
11691;SDS011;33659;42.672;23.354;2022-09-09T10:01:22;5.43;;;3.83;;
11691;SDS011;33659;42.672;23.354;2022-09-09T10:03:52;7.50;;;4.78;;
11691;SDS011;33659;42.672;23.354;2022-09-09T10:06:29;5.45;;;3.95;;
11691;SDS011;33659;42.672;23.354;2022-09-09T10:08:57;5.53;;;4.40;;
11691;SDS011;33659;42.672;23.354;2022-09-09T10:11:37;5.72;;;4.65;;
11691;SDS011;33659;42.672;23.354;2022-09-09T10:14:13;8.60;;;4.22;;
11691;SDS011;33659;42.672;23.354;2022-09-09T10:16:52;13.80;;;5.10;;
11691;SDS011;33659;42.672;23.354;2022-09-09T10:19:33;10.23;;;5.85;;
11691;SDS011;33659;42.672;23.354;2022-09-09T10:24:54;5.40;;;4.40;;
11691;SDS011;33659;42.672;23.354;2022-09-09T10:27:42;7.40;;;4.88;;
11691;SDS011;33659;42.672;23.354;2022-09-09T10:30:16;10.27;;;5.22;;
11691;SDS011;33659;42.672;23.354;2022-09-09T10:32:46;4.70;;;4.00;;
11691;SDS011;33659;42.672;23.354;2022-09-09T10:35:25;6.20;;;4.82;;
11691;SDS011;33659;42.672;23.354;2022-09-09T10:38:12;7.10;;;4.30;;
11691;SDS011;33659;42.672;23.354;2022-09-09T10:40:43;7.53;;;4.45;;
11691;SDS011;33659;42.672;23.354;2022-09-09T10:43:21;5.60;;;4.80;;
11691;SDS011;33659;42.672;23.354;2022-09-09T10:46:05;5.95;;;4.38;;
11691;SDS011;33659;42.672;23.354;2022-09-09T10:48:41;8.32;;;4.18;;
11691;SDS011;33659;42.672;23.354;2022-09-09T10:51:25;6.40;;;4.40;;
11691;SDS011;33659;42.672;23.354;2022-09-09T10:54:04;10.95;;;4.25;;
11691;SDS011;33659;42.672;23.354;2022-09-09T10:56:39;6.80;;;5.68;;
11691;SDS011;33659;42.672;23.354;2022-09-09T10:59:09;9.40;;;5.10;;
11691;SDS011;33659;42.672;23.354;2022-09-09T11:01:41;9.07;;;5.03;;
11691;SDS011;33659;42.672;23.354;2022-09-09T11:04:12;5.82;;;4.57;;
11691;SDS011;33659;42.672;23.354;2022-09-09T11:06:45;6.30;;;5.07;;
11691;SDS011;33659;42.672;23.354;2022-09-09T11:09:19;6.13;;;4.95;;
11691;SDS011;33659;42.672;23.354;2022-09-09T11:11:49;8.75;;;4.90;;
11691;SDS011;33659;42.672;23.354;2022-09-09T11:14:21;5.93;;;4.68;;
11691;SDS011;33659;42.672;23.354;2022-09-09T11:16:55;9.48;;;5.35;;
11691;SDS011;33659;42.672;23.354;2022-09-09T11:19:26;7.80;;;5.07;;
11691;SDS011;33659;42.672;23.354;2022-09-09T11:21:58;8.68;;;4.88;;
11691;SDS011;33659;42.672;23.354;2022-09-09T11:24:29;14.40;;;5.90;;
11691;SDS011;33659;42.672;23.354;2022-09-09T11:27:05;7.45;;;5.20;;
11691;SDS011;33659;42.672;23.354;2022-09-09T11:36:11;11.18;;;5.20;;
11691;SDS011;33659;42.672;23.354;2022-09-09T11:38:54;10.90;;;6.47;;
11691;SDS011;33659;42.672;23.354;2022-09-09T11:41:32;8.55;;;5.93;;
11691;SDS011;33659;42.672;23.354;2022-09-09T11:44:08;12.57;;;5.68;;
11691;SDS011;33659;42.672;23.354;2022-09-09T11:46:38;8.65;;;5.55;;
11691;SDS011;33659;42.672;23.354;2022-09-09T11:49:23;8.18;;;4.95;;
11691;SDS011;33659;42.672;23.354;2022-09-09T11:51:53;12.38;;;5.85;;
11691;SDS011;33659;42.672;23.354;2022-09-09T11:54:29;8.35;;;5.85;;
11691;SDS011;33659;42.672;23.354;2022-09-09T11:56:57;12.85;;;6.10;;
11691;SDS011;33659;42.672;23.354;2022-09-09T11:59:25;11.02;;;5.57;;
11691;SDS011;33659;42.672;23.354;2022-09-09T12:01:55;7.60;;;5.80;;
11691;SDS011;33659;42.672;23.354;2022-09-09T12:04:33;10.77;;;5.47;;
11691;SDS011;33659;42.672;23.354;2022-09-09T12:07:05;7.38;;;5.18;;
11691;SDS011;33659;42.672;23.354;2022-09-09T12:09:51;13.32;;;5.35;;
11691;SDS011;33659;42.672;23.354;2022-09-09T12:12:29;8.57;;;5.53;;
11691;SDS011;33659;42.672;23.354;2022-09-09T12:15:01;8.38;;;6.05;;
11691;SDS011;33659;42.672;23.354;2022-09-09T12:17:46;10.68;;;5.72;;
11691;SDS011;33659;42.672;23.354;2022-09-09T12:20:16;7.95;;;5.13;;
11691;SDS011;33659;42.672;23.354;2022-09-09T12:25:53;10.25;;;6.35;;
11691;SDS011;33659;42.672;23.354;2022-09-09T12:28:27;7.57;;;5.00;;
11691;SDS011;33659;42.672;23.354;2022-09-09T12:31:09;9.02;;;6.00;;
11691;SDS011;33659;42.672;23.354;2022-09-09T12:33:43;6.80;;;5.35;;
11691;SDS011;33659;42.672;23.354;2022-09-09T12:36:14;9.27;;;5.65;;
11691;SDS011;33659;42.672;23.354;2022-09-09T12:38:44;15.23;;;7.10;;
11691;SDS011;33659;42.672;23.354;2022-09-09T12:41:22;10.90;;;6.38;;
11691;SDS011;33659;42.672;23.354;2022-09-09T12:43:50;11.80;;;5.70;;
11691;SDS011;33659;42.672;23.354;2022-09-09T12:46:30;13.68;;;5.68;;
11691;SDS011;33659;42.672;23.354;2022-09-09T12:49:02;8.90;;;5.88;;
11691;SDS011;33659;42.672;23.354;2022-09-09T12:51:31;7.30;;;5.47;;
11691;SDS011;33659;42.672;23.354;2022-09-09T12:53:59;11.23;;;7.22;;
11691;SDS011;33659;42.672;23.354;2022-09-09T12:56:28;10.45;;;6.10;;
11691;SDS011;33659;42.672;23.354;2022-09-09T12:58:57;9.27;;;5.80;;
11691;SDS011;33659;42.672;23.354;2022-09-09T13:01:26;6.70;;;5.93;;
11691;SDS011;33659;42.672;23.354;2022-09-09T13:03:55;7.80;;;5.75;;
11691;SDS011;33659;42.672;23.354;2022-09-09T13:06:23;10.90;;;5.68;;
11691;SDS011;33659;42.672;23.354;2022-09-09T13:08:51;8.85;;;6.00;;
11691;SDS011;33659;42.672;23.354;2022-09-09T13:11:20;10.13;;;5.65;;
11691;SDS011;33659;42.672;23.354;2022-09-09T13:13:55;14.70;;;7.88;;
11691;SDS011;33659;42.672;23.354;2022-09-09T13:16:25;13.45;;;6.00;;
11691;SDS011;33659;42.672;23.354;2022-09-09T13:18:55;9.23;;;5.93;;
11691;SDS011;33659;42.672;23.354;2022-09-09T13:21:30;10.07;;;5.30;;
11691;SDS011;33659;42.672;23.354;2022-09-09T13:23:59;12.32;;;5.88;;
11691;SDS011;33659;42.672;23.354;2022-09-09T13:26:28;13.70;;;6.40;;
11691;SDS011;33659;42.672;23.354;2022-09-09T13:29:13;9.52;;;6.53;;
11691;SDS011;33659;42.672;23.354;2022-09-09T13:31:44;8.73;;;5.80;;
11691;SDS011;33659;42.672;23.354;2022-09-09T13:34:11;9.38;;;5.65;;
11691;SDS011;33659;42.672;23.354;2022-09-09T13:36:39;8.60;;;5.55;;
11691;SDS011;33659;42.672;23.354;2022-09-09T13:39:13;10.73;;;6.07;;
11691;SDS011;33659;42.672;23.354;2022-09-09T13:41:43;10.40;;;6.53;;
11691;SDS011;33659;42.672;23.354;2022-09-09T13:44:17;13.48;;;6.60;;
11691;SDS011;33659;42.672;23.354;2022-09-09T13:46:58;8.77;;;5.22;;
11691;SDS011;33659;42.672;23.354;2022-09-09T13:49:27;8.52;;;6.30;;
11691;SDS011;33659;42.672;23.354;2022-09-09T13:52:05;11.10;;;6.03;;
11691;SDS011;33659;42.672;23.354;2022-09-09T13:54:36;13.23;;;6.03;;
11691;SDS011;33659;42.672;23.354;2022-09-09T13:57:03;7.60;;;5.60;;
11691;SDS011;33659;42.672;23.354;2022-09-09T13:59:32;10.70;;;5.82;;
11691;SDS011;33659;42.672;23.354;2022-09-09T14:01:59;11.23;;;5.53;;
11691;SDS011;33659;42.672;23.354;2022-09-09T14:04:26;8.18;;;6.05;;
11691;SDS011;33659;42.672;23.354;2022-09-09T14:06:53;7.63;;;6.18;;
11691;SDS011;33659;42.672;23.354;2022-09-09T14:09:22;8.85;;;5.65;;
11691;SDS011;33659;42.672;23.354;2022-09-09T14:11:49;7.75;;;5.65;;
11691;SDS011;33659;42.672;23.354;2022-09-09T14:14:16;9.05;;;5.60;;
11691;SDS011;33659;42.672;23.354;2022-09-09T14:16:44;7.65;;;5.93;;
11691;SDS011;33659;42.672;23.354;2022-09-09T14:19:10;10.43;;;5.75;;
11691;SDS011;33659;42.672;23.354;2022-09-09T14:21:37;10.25;;;6.47;;
11691;SDS011;33659;42.672;23.354;2022-09-09T14:24:04;6.57;;;5.25;;
11691;SDS011;33659;42.672;23.354;2022-09-09T14:26:31;6.90;;;5.22;;
11691;SDS011;33659;42.672;23.354;2022-09-09T14:28:58;9.30;;;4.90;;
11691;SDS011;33659;42.672;23.354;2022-09-09T14:31:25;10.07;;;5.78;;
11691;SDS011;33659;42.672;23.354;2022-09-09T14:33:53;9.90;;;5.93;;
11691;SDS011;33659;42.672;23.354;2022-09-09T14:36:20;13.00;;;5.95;;
11691;SDS011;33659;42.672;23.354;2022-09-09T14:38:47;10.30;;;5.90;;
11691;SDS011;33659;42.672;23.354;2022-09-09T14:41:15;16.30;;;5.95;;
11691;SDS011;33659;42.672;23.354;2022-09-09T14:43:43;12.75;;;5.50;;
11691;SDS011;33659;42.672;23.354;2022-09-09T14:46:11;15.32;;;5.22;;
11691;SDS011;33659;42.672;23.354;2022-09-09T14:48:39;8.63;;;5.07;;
11691;SDS011;33659;42.672;23.354;2022-09-09T14:51:08;12.38;;;5.22;;
11691;SDS011;33659;42.672;23.354;2022-09-09T14:53:37;7.05;;;5.47;;
11691;SDS011;33659;42.672;23.354;2022-09-09T14:56:05;9.68;;;5.40;;
11691;SDS011;33659;42.672;23.354;2022-09-09T14:58:33;8.25;;;5.13;;
11691;SDS011;33659;42.672;23.354;2022-09-09T15:01:04;9.45;;;5.15;;
11691;SDS011;33659;42.672;23.354;2022-09-09T15:03:31;9.75;;;5.28;;
11691;SDS011;33659;42.672;23.354;2022-09-09T15:06:04;11.63;;;5.85;;